Terminal Aerodrome Forecast
Issued by NWS Burlington, VT

Home | Current Version | Previous Version | Text Only | Print | Product List | Glossary On
Versions: 1 2 3 4 5 6 7 8 9 10 11 12 13 14 15 16 17 18 19 20 21 22 23
000
FTUS41 KBTV 241619 AAB
TAFBTV
TAF AMD
KBTV 241619Z 2416/2512 36007KT 6SM BR SCT007 OVC015
      TEMPO 2416/2418 5SM BR BKN007 OVC015
     FM241800 34008KT P6SM SCT007 OVC019
     FM242100 33008KT P6SM OVC035
     FM250000 VRB03KT P6SM BKN060
     FM250500 00000KT P6SM SCT200=

USA.gov is the U.S. government's official web portal to all federal, state and local government web resources and services.